sensor_id;sensor_type;location;lat;lon;timestamp;P1;durP1;ratioP1;P2;durP2;ratioP2
23181;SDS011;11759;51.282;6.642;2023-05-07T00:00:21;11.85;;;6.82;;
23181;SDS011;11759;51.282;6.642;2023-05-07T00:02:47;10.95;;;8.27;;
23181;SDS011;11759;51.282;6.642;2023-05-07T00:05:14;10.75;;;7.60;;
23181;SDS011;11759;51.282;6.642;2023-05-07T00:07:41;11.50;;;5.55;;
23181;SDS011;11759;51.282;6.642;2023-05-07T00:10:09;12.80;;;8.45;;
23181;SDS011;11759;51.282;6.642;2023-05-07T00:12:37;11.68;;;6.00;;
23181;SDS011;11759;51.282;6.642;2023-05-07T00:15:03;10.45;;;6.47;;
23181;SDS011;11759;51.282;6.642;2023-05-07T00:17:32;8.82;;;5.25;;
23181;SDS011;11759;51.282;6.642;2023-05-07T00:19:59;10.23;;;6.88;;
23181;SDS011;11759;51.282;6.642;2023-05-07T00:22:26;10.38;;;6.10;;
23181;SDS011;11759;51.282;6.642;2023-05-07T00:24:53;12.15;;;6.65;;
23181;SDS011;11759;51.282;6.642;2023-05-07T00:27:20;12.43;;;6.97;;
23181;SDS011;11759;51.282;6.642;2023-05-07T00:29:46;8.73;;;6.05;;
23181;SDS011;11759;51.282;6.642;2023-05-07T00:32:13;10.07;;;6.85;;
23181;SDS011;11759;51.282;6.642;2023-05-07T00:34:40;10.80;;;6.45;;
23181;SDS011;11759;51.282;6.642;2023-05-07T00:37:06;11.38;;;6.57;;
23181;SDS011;11759;51.282;6.642;2023-05-07T00:39:36;8.65;;;5.32;;
23181;SDS011;11759;51.282;6.642;2023-05-07T00:42:02;12.82;;;8.27;;
23181;SDS011;11759;51.282;6.642;2023-05-07T00:44:30;12.05;;;6.35;;
23181;SDS011;11759;51.282;6.642;2023-05-07T00:46:57;11.85;;;8.25;;
23181;SDS011;11759;51.282;6.642;2023-05-07T00:49:25;9.55;;;6.82;;
23181;SDS011;11759;51.282;6.642;2023-05-07T00:52:05;16.17;;;8.57;;
23181;SDS011;11759;51.282;6.642;2023-05-07T00:54:33;22.58;;;13.63;;
23181;SDS011;11759;51.282;6.642;2023-05-07T00:57:01;13.52;;;6.63;;
23181;SDS011;11759;51.282;6.642;2023-05-07T00:59:30;11.75;;;7.70;;
23181;SDS011;11759;51.282;6.642;2023-05-07T01:01:58;17.52;;;8.18;;
23181;SDS011;11759;51.282;6.642;2023-05-07T01:04:25;10.68;;;6.32;;
23181;SDS011;11759;51.282;6.642;2023-05-07T01:06:53;18.55;;;13.05;;
23181;SDS011;11759;51.282;6.642;2023-05-07T01:09:23;11.55;;;5.80;;
23181;SDS011;11759;51.282;6.642;2023-05-07T01:11:51;7.78;;;5.97;;
23181;SDS011;11759;51.282;6.642;2023-05-07T01:14:18;11.95;;;7.20;;
23181;SDS011;11759;51.282;6.642;2023-05-07T01:16:47;11.88;;;6.07;;
23181;SDS011;11759;51.282;6.642;2023-05-07T01:19:15;11.55;;;6.97;;
23181;SDS011;11759;51.282;6.642;2023-05-07T01:21:45;14.68;;;8.65;;
23181;SDS011;11759;51.282;6.642;2023-05-07T01:24:16;15.10;;;6.90;;
23181;SDS011;11759;51.282;6.642;2023-05-07T01:26:43;11.68;;;7.28;;
23181;SDS011;11759;51.282;6.642;2023-05-07T01:29:13;10.40;;;7.13;;
23181;SDS011;11759;51.282;6.642;2023-05-07T01:31:40;10.65;;;6.93;;
23181;SDS011;11759;51.282;6.642;2023-05-07T01:34:08;15.00;;;6.97;;
23181;SDS011;11759;51.282;6.642;2023-05-07T01:36:36;10.98;;;6.82;;
23181;SDS011;11759;51.282;6.642;2023-05-07T01:39:03;13.63;;;6.55;;
23181;SDS011;11759;51.282;6.642;2023-05-07T01:41:31;10.85;;;7.15;;
23181;SDS011;11759;51.282;6.642;2023-05-07T01:43:58;8.40;;;6.40;;
23181;SDS011;11759;51.282;6.642;2023-05-07T01:46:26;10.25;;;7.55;;
23181;SDS011;11759;51.282;6.642;2023-05-07T01:48:52;13.52;;;7.25;;
23181;SDS011;11759;51.282;6.642;2023-05-07T01:51:20;19.70;;;11.30;;
23181;SDS011;11759;51.282;6.642;2023-05-07T01:53:48;15.93;;;7.30;;
23181;SDS011;11759;51.282;6.642;2023-05-07T01:56:18;17.27;;;9.65;;
23181;SDS011;11759;51.282;6.642;2023-05-07T01:58:45;11.00;;;7.30;;
23181;SDS011;11759;51.282;6.642;2023-05-07T02:01:13;13.10;;;9.13;;
23181;SDS011;11759;51.282;6.642;2023-05-07T02:03:41;10.70;;;7.28;;
23181;SDS011;11759;51.282;6.642;2023-05-07T02:06:16;28.42;;;15.27;;
23181;SDS011;11759;51.282;6.642;2023-05-07T02:08:43;9.52;;;7.00;;
23181;SDS011;11759;51.282;6.642;2023-05-07T02:11:10;17.77;;;11.13;;
23181;SDS011;11759;51.282;6.642;2023-05-07T02:13:37;13.57;;;7.72;;
23181;SDS011;11759;51.282;6.642;2023-05-07T02:16:04;14.05;;;9.60;;
23181;SDS011;11759;51.282;6.642;2023-05-07T02:18:31;12.15;;;8.63;;
23181;SDS011;11759;51.282;6.642;2023-05-07T02:20:58;12.50;;;8.93;;
23181;SDS011;11759;51.282;6.642;2023-05-07T02:23:25;16.88;;;9.85;;
23181;SDS011;11759;51.282;6.642;2023-05-07T02:25:51;12.93;;;8.70;;
23181;SDS011;11759;51.282;6.642;2023-05-07T02:28:18;16.55;;;10.32;;
23181;SDS011;11759;51.282;6.642;2023-05-07T02:30:58;16.38;;;9.02;;
23181;SDS011;11759;51.282;6.642;2023-05-07T02:33:27;11.82;;;7.97;;
23181;SDS011;11759;51.282;6.642;2023-05-07T02:35:55;11.52;;;7.88;;
23181;SDS011;11759;51.282;6.642;2023-05-07T02:38:22;14.80;;;9.60;;
23181;SDS011;11759;51.282;6.642;2023-05-07T02:40:49;11.02;;;6.95;;
23181;SDS011;11759;51.282;6.642;2023-05-07T02:43:16;19.55;;;10.98;;
23181;SDS011;11759;51.282;6.642;2023-05-07T02:45:45;11.82;;;8.25;;
23181;SDS011;11759;51.282;6.642;2023-05-07T02:48:13;16.98;;;10.20;;
23181;SDS011;11759;51.282;6.642;2023-05-07T02:50:39;11.48;;;7.50;;
23181;SDS011;11759;51.282;6.642;2023-05-07T02:53:06;16.10;;;8.73;;
23181;SDS011;11759;51.282;6.642;2023-05-07T02:55:33;13.20;;;7.50;;
23181;SDS011;11759;51.282;6.642;2023-05-07T02:57:59;14.63;;;7.80;;
23181;SDS011;11759;51.282;6.642;2023-05-07T03:00:26;11.93;;;8.93;;
23181;SDS011;11759;51.282;6.642;2023-05-07T03:03:11;15.68;;;8.40;;
23181;SDS011;11759;51.282;6.642;2023-05-07T03:05:38;11.65;;;8.38;;
23181;SDS011;11759;51.282;6.642;2023-05-07T03:08:04;16.70;;;9.20;;
23181;SDS011;11759;51.282;6.642;2023-05-07T03:10:31;10.70;;;8.02;;
23181;SDS011;11759;51.282;6.642;2023-05-07T03:12:57;12.27;;;7.80;;
23181;SDS011;11759;51.282;6.642;2023-05-07T03:15:24;16.17;;;9.23;;
23181;SDS011;11759;51.282;6.642;2023-05-07T03:17:51;24.42;;;14.73;;
23181;SDS011;11759;51.282;6.642;2023-05-07T03:20:18;18.92;;;11.48;;
23181;SDS011;11759;51.282;6.642;2023-05-07T03:22:45;18.20;;;10.73;;
23181;SDS011;11759;51.282;6.642;2023-05-07T03:25:11;17.25;;;11.88;;
23181;SDS011;11759;51.282;6.642;2023-05-07T03:27:38;11.85;;;7.70;;
23181;SDS011;11759;51.282;6.642;2023-05-07T03:30:05;18.25;;;12.30;;
23181;SDS011;11759;51.282;6.642;2023-05-07T03:32:33;12.57;;;7.85;;
23181;SDS011;11759;51.282;6.642;2023-05-07T03:34:59;19.33;;;9.43;;
23181;SDS011;11759;51.282;6.642;2023-05-07T03:37:26;13.23;;;9.13;;
23181;SDS011;11759;51.282;6.642;2023-05-07T03:39:53;15.98;;;8.35;;
23181;SDS011;11759;51.282;6.642;2023-05-07T03:42:20;12.98;;;8.93;;
23181;SDS011;11759;51.282;6.642;2023-05-07T03:44:49;14.05;;;9.00;;
23181;SDS011;11759;51.282;6.642;2023-05-07T03:47:15;12.38;;;9.00;;
23181;SDS011;11759;51.282;6.642;2023-05-07T03:49:43;16.27;;;8.45;;
23181;SDS011;11759;51.282;6.642;2023-05-07T03:52:09;15.18;;;8.30;;
23181;SDS011;11759;51.282;6.642;2023-05-07T03:54:36;12.93;;;8.00;;
23181;SDS011;11759;51.282;6.642;2023-05-07T03:57:03;13.32;;;8.55;;
23181;SDS011;11759;51.282;6.642;2023-05-07T03:59:31;12.55;;;8.48;;
23181;SDS011;11759;51.282;6.642;2023-05-07T04:01:57;16.40;;;8.18;;
23181;SDS011;11759;51.282;6.642;2023-05-07T04:04:26;11.95;;;8.55;;
23181;SDS011;11759;51.282;6.642;2023-05-07T04:06:53;18.15;;;8.10;;
23181;SDS011;11759;51.282;6.642;2023-05-07T04:09:20;11.07;;;8.18;;
23181;SDS011;11759;51.282;6.642;2023-05-07T04:11:47;11.02;;;7.55;;
23181;SDS011;11759;51.282;6.642;2023-05-07T04:14:14;13.15;;;8.15;;
23181;SDS011;11759;51.282;6.642;2023-05-07T04:16:41;10.43;;;7.78;;
23181;SDS011;11759;51.282;6.642;2023-05-07T04:19:08;13.07;;;8.10;;
23181;SDS011;11759;51.282;6.642;2023-05-07T04:21:36;9.45;;;7.25;;
23181;SDS011;11759;51.282;6.642;2023-05-07T04:24:03;11.80;;;7.20;;
23181;SDS011;11759;51.282;6.642;2023-05-07T04:26:29;13.18;;;8.38;;
23181;SDS011;11759;51.282;6.642;2023-05-07T04:28:56;11.85;;;8.02;;
23181;SDS011;11759;51.282;6.642;2023-05-07T04:31:30;13.88;;;7.50;;
23181;SDS011;11759;51.282;6.642;2023-05-07T04:33:57;11.48;;;7.20;;
23181;SDS011;11759;51.282;6.642;2023-05-07T04:36:24;14.80;;;7.18;;
23181;SDS011;11759;51.282;6.642;2023-05-07T04:38:59;13.05;;;6.72;;
23181;SDS011;11759;51.282;6.642;2023-05-07T04:41:26;9.60;;;7.55;;
23181;SDS011;11759;51.282;6.642;2023-05-07T04:43:53;10.05;;;7.10;;
23181;SDS011;11759;51.282;6.642;2023-05-07T04:46:21;10.20;;;6.75;;
23181;SDS011;11759;51.282;6.642;2023-05-07T04:48:48;20.08;;;7.45;;
23181;SDS011;11759;51.282;6.642;2023-05-07T04:51:15;13.00;;;7.60;;
23181;SDS011;11759;51.282;6.642;2023-05-07T04:53:42;11.50;;;7.28;;
23181;SDS011;11759;51.282;6.642;2023-05-07T04:56:09;11.68;;;6.95;;
23181;SDS011;11759;51.282;6.642;2023-05-07T04:58:40;11.40;;;7.43;;
23181;SDS011;11759;51.282;6.642;2023-05-07T05:01:07;10.82;;;5.85;;
23181;SDS011;11759;51.282;6.642;2023-05-07T05:03:34;11.80;;;6.25;;
23181;SDS011;11759;51.282;6.642;2023-05-07T05:06:01;8.07;;;6.32;;
23181;SDS011;11759;51.282;6.642;2023-05-07T05:08:31;16.43;;;7.70;;
23181;SDS011;11759;51.282;6.642;2023-05-07T05:11:03;8.93;;;5.93;;
23181;SDS011;11759;51.282;6.642;2023-05-07T05:13:32;8.07;;;5.78;;
23181;SDS011;11759;51.282;6.642;2023-05-07T05:16:00;7.70;;;5.60;;
23181;SDS011;11759;51.282;6.642;2023-05-07T05:18:30;10.93;;;6.20;;
23181;SDS011;11759;51.282;6.642;2023-05-07T05:20:56;13.52;;;6.20;;
23181;SDS011;11759;51.282;6.642;2023-05-07T05:23:23;9.55;;;6.15;;
23181;SDS011;11759;51.282;6.642;2023-05-07T05:25:49;6.50;;;5.40;;
23181;SDS011;11759;51.282;6.642;2023-05-07T05:28:16;8.60;;;5.53;;
23181;SDS011;11759;51.282;6.642;2023-05-07T05:30:43;13.30;;;8.73;;
23181;SDS011;11759;51.282;6.642;2023-05-07T05:33:10;7.68;;;5.25;;
23181;SDS011;11759;51.282;6.642;2023-05-07T05:35:37;8.32;;;6.95;;
23181;SDS011;11759;51.282;6.642;2023-05-07T05:38:08;10.73;;;5.80;;
23181;SDS011;11759;51.282;6.642;2023-05-07T05:40:34;9.90;;;6.25;;
23181;SDS011;11759;51.282;6.642;2023-05-07T05:43:01;10.15;;;5.13;;
23181;SDS011;11759;51.282;6.642;2023-05-07T05:45:29;8.07;;;6.18;;
23181;SDS011;11759;51.282;6.642;2023-05-07T05:47:56;9.27;;;4.85;;
23181;SDS011;11759;51.282;6.642;2023-05-07T05:50:23;11.60;;;6.03;;
23181;SDS011;11759;51.282;6.642;2023-05-07T05:52:51;6.85;;;4.85;;
23181;SDS011;11759;51.282;6.642;2023-05-07T05:55:19;8.63;;;6.40;;
23181;SDS011;11759;51.282;6.642;2023-05-07T05:57:46;10.10;;;5.30;;
23181;SDS011;11759;51.282;6.642;2023-05-07T06:00:13;11.05;;;6.63;;
23181;SDS011;11759;51.282;6.642;2023-05-07T06:02:46;9.95;;;5.53;;
23181;SDS011;11759;51.282;6.642;2023-05-07T06:05:18;7.80;;;6.53;;
23181;SDS011;11759;51.282;6.642;2023-05-07T06:07:46;9.50;;;4.93;;
23181;SDS011;11759;51.282;6.642;2023-05-07T06:10:14;10.52;;;6.50;;
23181;SDS011;11759;51.282;6.642;2023-05-07T06:12:40;10.05;;;7.30;;
23181;SDS011;11759;51.282;6.642;2023-05-07T06:15:07;14.20;;;6.28;;
23181;SDS011;11759;51.282;6.642;2023-05-07T06:17:34;6.30;;;4.93;;
23181;SDS011;11759;51.282;6.642;2023-05-07T06:20:01;7.78;;;4.72;;
23181;SDS011;11759;51.282;6.642;2023-05-07T06:22:28;10.00;;;4.55;;
23181;SDS011;11759;51.282;6.642;2023-05-07T06:24:54;9.07;;;5.20;;
23181;SDS011;11759;51.282;6.642;2023-05-07T06:27:22;6.25;;;4.88;;
23181;SDS011;11759;51.282;6.642;2023-05-07T06:29:49;8.57;;;5.65;;
23181;SDS011;11759;51.282;6.642;2023-05-07T06:32:16;6.47;;;4.28;;
23181;SDS011;11759;51.282;6.642;2023-05-07T06:34:45;5.38;;;4.32;;
23181;SDS011;11759;51.282;6.642;2023-05-07T06:37:13;9.32;;;4.30;;
23181;SDS011;11759;51.282;6.642;2023-05-07T06:40:06;9.88;;;7.25;;
23181;SDS011;11759;51.282;6.642;2023-05-07T06:42:36;9.63;;;4.68;;
23181;SDS011;11759;51.282;6.642;2023-05-07T06:45:29;6.28;;;3.95;;
23181;SDS011;11759;51.282;6.642;2023-05-07T06:47:57;8.65;;;4.70;;
23181;SDS011;11759;51.282;6.642;2023-05-07T06:50:24;6.28;;;3.47;;
23181;SDS011;11759;51.282;6.642;2023-05-07T06:52:55;7.32;;;3.53;;
23181;SDS011;11759;51.282;6.642;2023-05-07T06:55:22;6.10;;;3.33;;
23181;SDS011;11759;51.282;6.642;2023-05-07T06:57:49;4.72;;;3.22;;
23181;SDS011;11759;51.282;6.642;2023-05-07T07:00:18;8.00;;;3.80;;
23181;SDS011;11759;51.282;6.642;2023-05-07T07:02:50;5.60;;;3.10;;
23181;SDS011;11759;51.282;6.642;2023-05-07T07:05:20;7.50;;;3.85;;
23181;SDS011;11759;51.282;6.642;2023-05-07T07:07:47;4.07;;;2.92;;
23181;SDS011;11759;51.282;6.642;2023-05-07T07:10:20;7.25;;;3.88;;
23181;SDS011;11759;51.282;6.642;2023-05-07T07:12:49;4.50;;;2.20;;
23181;SDS011;11759;51.282;6.642;2023-05-07T07:15:16;5.15;;;3.22;;
23181;SDS011;11759;51.282;6.642;2023-05-07T07:17:45;5.18;;;2.80;;
23181;SDS011;11759;51.282;6.642;2023-05-07T07:20:11;3.55;;;2.60;;
23181;SDS011;11759;51.282;6.642;2023-05-07T07:22:41;2.95;;;2.17;;
23181;SDS011;11759;51.282;6.642;2023-05-07T07:25:08;5.88;;;3.42;;
23181;SDS011;11759;51.282;6.642;2023-05-07T07:27:37;8.50;;;2.45;;
23181;SDS011;11759;51.282;6.642;2023-05-07T07:30:04;4.93;;;2.83;;
23181;SDS011;11759;51.282;6.642;2023-05-07T07:32:34;2.75;;;2.20;;
23181;SDS011;11759;51.282;6.642;2023-05-07T07:35:01;5.43;;;2.30;;
23181;SDS011;11759;51.282;6.642;2023-05-07T07:37:28;4.72;;;2.60;;
23181;SDS011;11759;51.282;6.642;2023-05-07T07:39:56;3.63;;;2.38;;
23181;SDS011;11759;51.282;6.642;2023-05-07T07:42:23;5.65;;;2.40;;
23181;SDS011;11759;51.282;6.642;2023-05-07T07:44:49;4.78;;;2.30;;
23181;SDS011;11759;51.282;6.642;2023-05-07T07:47:20;6.20;;;2.63;;
23181;SDS011;11759;51.282;6.642;2023-05-07T07:49:48;8.98;;;2.60;;
23181;SDS011;11759;51.282;6.642;2023-05-07T07:52:15;5.57;;;2.78;;
23181;SDS011;11759;51.282;6.642;2023-05-07T07:54:44;3.45;;;2.50;;
23181;SDS011;11759;51.282;6.642;2023-05-07T07:57:11;5.70;;;3.42;;
23181;SDS011;11759;51.282;6.642;2023-05-07T07:59:37;2.65;;;2.30;;
23181;SDS011;11759;51.282;6.642;2023-05-07T08:02:04;4.78;;;2.92;;
23181;SDS011;11759;51.282;6.642;2023-05-07T08:04:31;4.22;;;2.88;;
23181;SDS011;11759;51.282;6.642;2023-05-07T08:07:03;3.55;;;2.72;;
23181;SDS011;11759;51.282;6.642;2023-05-07T08:09:33;3.97;;;2.38;;
23181;SDS011;11759;51.282;6.642;2023-05-07T08:12:01;7.03;;;2.95;;
23181;SDS011;11759;51.282;6.642;2023-05-07T08:14:31;4.65;;;3.17;;
23181;SDS011;11759;51.282;6.642;2023-05-07T08:16:58;4.07;;;2.50;;
23181;SDS011;11759;51.282;6.642;2023-05-07T08:19:26;5.65;;;3.17;;
23181;SDS011;11759;51.282;6.642;2023-05-07T08:21:54;5.15;;;2.88;;
23181;SDS011;11759;51.282;6.642;2023-05-07T08:24:23;2.75;;;2.13;;
23181;SDS011;11759;51.282;6.642;2023-05-07T08:26:51;5.45;;;2.72;;
23181;SDS011;11759;51.282;6.642;2023-05-07T08:29:18;5.82;;;2.80;;
23181;SDS011;11759;51.282;6.642;2023-05-07T08:31:45;6.53;;;3.40;;
23181;SDS011;11759;51.282;6.642;2023-05-07T08:34:12;7.88;;;2.55;;
23181;SDS011;11759;51.282;6.642;2023-05-07T08:36:41;5.38;;;2.80;;
23181;SDS011;11759;51.282;6.642;2023-05-07T08:39:11;5.15;;;2.78;;
23181;SDS011;11759;51.282;6.642;2023-05-07T08:41:38;5.07;;;3.13;;
23181;SDS011;11759;51.282;6.642;2023-05-07T08:44:06;5.72;;;2.63;;
23181;SDS011;11759;51.282;6.642;2023-05-07T08:46:33;3.05;;;2.22;;
23181;SDS011;11759;51.282;6.642;2023-05-07T08:49:00;5.25;;;3.58;;
23181;SDS011;11759;51.282;6.642;2023-05-07T08:51:27;6.13;;;2.72;;
23181;SDS011;11759;51.282;6.642;2023-05-07T08:53:55;8.82;;;3.70;;
23181;SDS011;11759;51.282;6.642;2023-05-07T08:56:27;5.63;;;3.35;;
23181;SDS011;11759;51.282;6.642;2023-05-07T08:58:54;4.90;;;3.28;;
23181;SDS011;11759;51.282;6.642;2023-05-07T09:01:27;5.43;;;2.85;;
23181;SDS011;11759;51.282;6.642;2023-05-07T09:03:55;10.30;;;7.60;;
23181;SDS011;11759;51.282;6.642;2023-05-07T09:06:22;4.97;;;2.75;;
23181;SDS011;11759;51.282;6.642;2023-05-07T09:08:50;5.78;;;3.55;;
23181;SDS011;11759;51.282;6.642;2023-05-07T09:11:22;4.43;;;2.85;;
23181;SDS011;11759;51.282;6.642;2023-05-07T09:13:54;3.88;;;3.17;;
23181;SDS011;11759;51.282;6.642;2023-05-07T09:16:23;4.78;;;2.60;;
23181;SDS011;11759;51.282;6.642;2023-05-07T09:18:52;5.88;;;3.10;;
23181;SDS011;11759;51.282;6.642;2023-05-07T09:21:20;4.13;;;2.60;;
23181;SDS011;11759;51.282;6.642;2023-05-07T09:23:50;4.88;;;3.20;;
23181;SDS011;11759;51.282;6.642;2023-05-07T09:26:23;4.93;;;2.65;;
23181;SDS011;11759;51.282;6.642;2023-05-07T09:28:51;4.85;;;3.00;;
23181;SDS011;11759;51.282;6.642;2023-05-07T09:31:18;5.32;;;2.28;;
23181;SDS011;11759;51.282;6.642;2023-05-07T09:33:48;3.33;;;2.47;;
23181;SDS011;11759;51.282;6.642;2023-05-07T09:36:16;5.95;;;5.18;;
23181;SDS011;11759;51.282;6.642;2023-05-07T09:38:43;6.63;;;2.88;;
23181;SDS011;11759;51.282;6.642;2023-05-07T09:41:12;6.82;;;2.47;;
23181;SDS011;11759;51.282;6.642;2023-05-07T09:43:47;4.75;;;3.80;;
23181;SDS011;11759;51.282;6.642;2023-05-07T09:46:27;7.35;;;3.00;;
23181;SDS011;11759;51.282;6.642;2023-05-07T09:48:58;10.63;;;7.68;;
23181;SDS011;11759;51.282;6.642;2023-05-07T09:51:43;4.00;;;2.40;;
23181;SDS011;11759;51.282;6.642;2023-05-07T09:54:16;5.78;;;2.75;;
23181;SDS011;11759;51.282;6.642;2023-05-07T09:56:47;4.20;;;2.70;;
23181;SDS011;11759;51.282;6.642;2023-05-07T09:59:16;7.85;;;2.42;;
23181;SDS011;11759;51.282;6.642;2023-05-07T10:01:44;5.82;;;3.60;;
23181;SDS011;11759;51.282;6.642;2023-05-07T10:04:13;7.25;;;4.50;;
23181;SDS011;11759;51.282;6.642;2023-05-07T10:06:43;6.72;;;3.13;;
23181;SDS011;11759;51.282;6.642;2023-05-07T10:11:40;6.57;;;2.58;;
23181;SDS011;11759;51.282;6.642;2023-05-07T10:14:07;4.78;;;2.00;;
23181;SDS011;11759;51.282;6.642;2023-05-07T10:16:35;2.33;;;1.85;;
23181;SDS011;11759;51.282;6.642;2023-05-07T10:19:08;4.95;;;3.03;;
23181;SDS011;11759;51.282;6.642;2023-05-07T10:21:47;5.50;;;2.10;;
23181;SDS011;11759;51.282;6.642;2023-05-07T10:24:26;5.13;;;1.83;;
23181;SDS011;11759;51.282;6.642;2023-05-07T10:26:59;3.30;;;1.52;;
23181;SDS011;11759;51.282;6.642;2023-05-07T10:35:12;3.67;;;2.60;;
23181;SDS011;11759;51.282;6.642;2023-05-07T10:37:42;3.80;;;2.00;;
23181;SDS011;11759;51.282;6.642;2023-05-07T10:40:10;4.10;;;2.63;;
23181;SDS011;11759;51.282;6.642;2023-05-07T10:42:37;4.03;;;1.70;;
23181;SDS011;11759;51.282;6.642;2023-05-07T10:45:14;7.20;;;2.53;;
23181;SDS011;11759;51.282;6.642;2023-05-07T10:51:22;5.00;;;3.35;;
23181;SDS011;11759;51.282;6.642;2023-05-07T10:57:32;3.28;;;2.25;;
23181;SDS011;11759;51.282;6.642;2023-05-07T10:59:54;4.65;;;2.00;;
23181;SDS011;11759;51.282;6.642;2023-05-07T11:03:10;3.33;;;1.63;;
23181;SDS011;11759;51.282;6.642;2023-05-07T11:05:33;3.53;;;1.80;;
23181;SDS011;11759;51.282;6.642;2023-05-07T11:08:25;2.47;;;1.70;;
23181;SDS011;11759;51.282;6.642;2023-05-07T11:10:59;6.32;;;1.77;;
23181;SDS011;11759;51.282;6.642;2023-05-07T11:13:43;3.20;;;1.50;;
23181;SDS011;11759;51.282;6.642;2023-05-07T11:16:23;4.78;;;1.52;;
23181;SDS011;11759;51.282;6.642;2023-05-07T11:19:03;3.92;;;1.77;;
23181;SDS011;11759;51.282;6.642;2023-05-07T11:21:37;4.38;;;1.90;;
23181;SDS011;11759;51.282;6.642;2023-05-07T11:24:21;7.13;;;1.83;;
23181;SDS011;11759;51.282;6.642;2023-05-07T11:27:01;6.35;;;2.20;;
23181;SDS011;11759;51.282;6.642;2023-05-07T11:29:29;5.70;;;1.70;;
23181;SDS011;11759;51.282;6.642;2023-05-07T11:32:03;3.92;;;1.65;;
23181;SDS011;11759;51.282;6.642;2023-05-07T11:34:35;3.53;;;1.77;;
23181;SDS011;11759;51.282;6.642;2023-05-07T11:37:02;10.30;;;2.42;;
23181;SDS011;11759;51.282;6.642;2023-05-07T11:39:41;3.40;;;1.90;;
23181;SDS011;11759;51.282;6.642;2023-05-07T11:42:24;3.42;;;1.40;;
23181;SDS011;11759;51.282;6.642;2023-05-07T11:44:54;3.80;;;1.40;;
23181;SDS011;11759;51.282;6.642;2023-05-07T11:47:21;3.85;;;2.28;;
23181;SDS011;11759;51.282;6.642;2023-05-07T11:49:48;6.00;;;3.17;;
23181;SDS011;11759;51.282;6.642;2023-05-07T11:52:17;3.67;;;2.15;;
23181;SDS011;11759;51.282;6.642;2023-05-07T11:54:51;7.18;;;3.88;;
23181;SDS011;11759;51.282;6.642;2023-05-07T11:57:19;3.30;;;2.00;;
23181;SDS011;11759;51.282;6.642;2023-05-07T11:59:46;5.55;;;2.40;;
23181;SDS011;11759;51.282;6.642;2023-05-07T12:02:17;4.63;;;1.65;;
23181;SDS011;11759;51.282;6.642;2023-05-07T12:04:44;4.47;;;1.95;;
23181;SDS011;11759;51.282;6.642;2023-05-07T12:07:11;3.75;;;1.58;;
23181;SDS011;11759;51.282;6.642;2023-05-07T12:09:40;2.17;;;1.58;;
23181;SDS011;11759;51.282;6.642;2023-05-07T12:12:07;2.47;;;1.40;;
23181;SDS011;11759;51.282;6.642;2023-05-07T12:14:40;4.07;;;1.75;;
23181;SDS011;11759;51.282;6.642;2023-05-07T12:17:08;7.45;;;1.50;;
23181;SDS011;11759;51.282;6.642;2023-05-07T12:19:36;6.75;;;1.70;;
23181;SDS011;11759;51.282;6.642;2023-05-07T12:22:03;4.22;;;1.45;;
23181;SDS011;11759;51.282;6.642;2023-05-07T12:24:50;2.85;;;1.60;;
23181;SDS011;11759;51.282;6.642;2023-05-07T12:27:23;3.30;;;1.40;;
23181;SDS011;11759;51.282;6.642;2023-05-07T12:29:50;2.78;;;1.80;;
23181;SDS011;11759;51.282;6.642;2023-05-07T12:32:17;3.47;;;1.88;;
23181;SDS011;11759;51.282;6.642;2023-05-07T12:34:46;4.07;;;1.80;;
23181;SDS011;11759;51.282;6.642;2023-05-07T12:37:15;3.72;;;1.55;;
23181;SDS011;11759;51.282;6.642;2023-05-07T12:39:48;4.65;;;2.28;;
23181;SDS011;11759;51.282;6.642;2023-05-07T12:42:15;4.20;;;1.60;;
23181;SDS011;11759;51.282;6.642;2023-05-07T12:44:45;4.07;;;1.52;;
23181;SDS011;11759;51.282;6.642;2023-05-07T12:47:12;2.50;;;1.40;;
23181;SDS011;11759;51.282;6.642;2023-05-07T12:49:39;4.13;;;1.77;;
23181;SDS011;11759;51.282;6.642;2023-05-07T12:52:06;2.40;;;1.30;;
23181;SDS011;11759;51.282;6.642;2023-05-07T12:54:33;3.50;;;1.50;;
23181;SDS011;11759;51.282;6.642;2023-05-07T12:57:05;2.13;;;1.25;;
23181;SDS011;11759;51.282;6.642;2023-05-07T12:59:34;12.32;;;1.40;;
23181;SDS011;11759;51.282;6.642;2023-05-07T13:02:05;3.17;;;1.40;;
23181;SDS011;11759;51.282;6.642;2023-05-07T13:04:33;3.50;;;1.50;;
23181;SDS011;11759;51.282;6.642;2023-05-07T13:07:00;5.05;;;1.30;;
23181;SDS011;11759;51.282;6.642;2023-05-07T13:09:27;3.78;;;2.28;;
23181;SDS011;11759;51.282;6.642;2023-05-07T13:11:57;1.92;;;1.40;;
23181;SDS011;11759;51.282;6.642;2023-05-07T13:14:26;2.38;;;1.40;;
23181;SDS011;11759;51.282;6.642;2023-05-07T13:16:52;4.43;;;1.85;;
23181;SDS011;11759;51.282;6.642;2023-05-07T13:19:19;3.53;;;1.38;;
23181;SDS011;11759;51.282;6.642;2023-05-07T13:21:45;4.28;;;1.40;;
23181;SDS011;11759;51.282;6.642;2023-05-07T13:24:12;3.72;;;1.17;;
23181;SDS011;11759;51.282;6.642;2023-05-07T13:26:39;4.85;;;1.50;;
23181;SDS011;11759;51.282;6.642;2023-05-07T13:29:05;3.58;;;1.40;;
23181;SDS011;11759;51.282;6.642;2023-05-07T13:31:32;3.60;;;1.65;;
23181;SDS011;11759;51.282;6.642;2023-05-07T13:34:00;3.20;;;1.40;;
23181;SDS011;11759;51.282;6.642;2023-05-07T13:36:26;4.78;;;1.20;;
23181;SDS011;11759;51.282;6.642;2023-05-07T13:38:54;4.82;;;2.17;;
23181;SDS011;11759;51.282;6.642;2023-05-07T13:41:21;4.28;;;1.90;;
23181;SDS011;11759;51.282;6.642;2023-05-07T13:43:47;4.07;;;2.88;;
23181;SDS011;11759;51.282;6.642;2023-05-07T13:46:14;4.90;;;2.80;;
23181;SDS011;11759;51.282;6.642;2023-05-07T13:48:41;10.63;;;2.70;;
23181;SDS011;11759;51.282;6.642;2023-05-07T13:51:08;4.63;;;2.33;;
23181;SDS011;11759;51.282;6.642;2023-05-07T13:53:34;5.90;;;2.65;;
23181;SDS011;11759;51.282;6.642;2023-05-07T13:56:02;3.63;;;2.40;;
23181;SDS011;11759;51.282;6.642;2023-05-07T13:58:30;4.63;;;2.70;;
23181;SDS011;11759;51.282;6.642;2023-05-07T14:00:57;4.95;;;2.97;;
23181;SDS011;11759;51.282;6.642;2023-05-07T14:03:23;4.80;;;2.90;;
23181;SDS011;11759;51.282;6.642;2023-05-07T14:05:50;6.75;;;3.47;;
23181;SDS011;11759;51.282;6.642;2023-05-07T14:08:17;7.88;;;2.53;;
23181;SDS011;11759;51.282;6.642;2023-05-07T14:10:46;3.83;;;3.20;;
23181;SDS011;11759;51.282;6.642;2023-05-07T14:13:12;5.63;;;2.70;;
23181;SDS011;11759;51.282;6.642;2023-05-07T14:15:39;5.10;;;3.40;;
23181;SDS011;11759;51.282;6.642;2023-05-07T14:18:06;6.57;;;2.85;;
23181;SDS011;11759;51.282;6.642;2023-05-07T14:20:33;7.13;;;3.25;;
23181;SDS011;11759;51.282;6.642;2023-05-07T14:23:02;3.60;;;2.50;;
23181;SDS011;11759;51.282;6.642;2023-05-07T14:25:29;6.05;;;2.70;;
23181;SDS011;11759;51.282;6.642;2023-05-07T14:27:56;6.10;;;3.97;;
23181;SDS011;11759;51.282;6.642;2023-05-07T14:30:22;5.30;;;3.40;;
23181;SDS011;11759;51.282;6.642;2023-05-07T14:32:50;4.90;;;3.50;;
23181;SDS011;11759;51.282;6.642;2023-05-07T14:35:17;7.53;;;4.20;;
23181;SDS011;11759;51.282;6.642;2023-05-07T14:37:43;7.20;;;4.50;;
23181;SDS011;11759;51.282;6.642;2023-05-07T14:40:10;8.50;;;5.25;;
23181;SDS011;11759;51.282;6.642;2023-05-07T14:42:39;9.38;;;5.40;;
23181;SDS011;11759;51.282;6.642;2023-05-07T14:45:06;7.22;;;5.32;;
23181;SDS011;11759;51.282;6.642;2023-05-07T14:47:33;9.07;;;4.82;;
23181;SDS011;11759;51.282;6.642;2023-05-07T14:50:00;10.05;;;5.15;;
23181;SDS011;11759;51.282;6.642;2023-05-07T14:52:27;9.07;;;5.90;;
23181;SDS011;11759;51.282;6.642;2023-05-07T14:54:54;8.07;;;5.57;;
23181;SDS011;11759;51.282;6.642;2023-05-07T14:57:20;13.43;;;5.75;;
23181;SDS011;11759;51.282;6.642;2023-05-07T14:59:47;10.32;;;5.63;;
23181;SDS011;11759;51.282;6.642;2023-05-07T15:02:14;9.57;;;5.75;;
23181;SDS011;11759;51.282;6.642;2023-05-07T15:04:41;7.63;;;5.45;;
23181;SDS011;11759;51.282;6.642;2023-05-07T15:07:12;10.30;;;6.00;;